createdAt,value
2023-02-27T00:00:14.603Z,5.43
2023-02-27T00:02:45.653Z,5.80
2023-02-27T00:05:13.101Z,5.40
2023-02-27T00:07:40.151Z,6.55
2023-02-27T00:10:07.905Z,6.07
2023-02-27T00:12:37.696Z,6.28
2023-02-27T00:15:08.883Z,5.88
2023-02-27T00:17:36.126Z,5.70
2023-02-27T00:20:03.773Z,5.85
2023-02-27T00:22:30.749Z,5.47
2023-02-27T00:24:57.870Z,6.63
2023-02-27T00:27:24.953Z,5.53
2023-02-27T00:29:51.949Z,6.38
2023-02-27T00:32:19.156Z,5.70
2023-02-27T00:34:46.246Z,5.70
2023-02-27T00:37:13.264Z,5.85
2023-02-27T00:39:40.295Z,6.40
2023-02-27T00:42:07.293Z,5.32
2023-02-27T00:44:34.335Z,5.72
2023-02-27T00:47:01.372Z,5.72
2023-02-27T00:49:28.429Z,6.05
2023-02-27T00:51:55.736Z,5.43
2023-02-27T00:54:22.909Z,5.88
2023-02-27T00:56:49.939Z,5.38
2023-02-27T00:59:16.956Z,5.65
2023-02-27T01:01:44.561Z,6.30
2023-02-27T01:04:11.921Z,6.10
2023-02-27T01:06:38.944Z,6.20
2023-02-27T01:09:06.240Z,5.47
2023-02-27T01:11:33.424Z,5.63
2023-02-27T01:14:00.579Z,6.32
2023-02-27T01:16:27.658Z,5.60
2023-02-27T01:18:54.720Z,5.72
2023-02-27T01:21:21.781Z,6.15
2023-02-27T01:23:48.871Z,5.90
2023-02-27T01:26:16.001Z,5.85
2023-02-27T01:28:43.075Z,5.93
2023-02-27T01:31:10.134Z,6.10
2023-02-27T01:33:37.142Z,5.82
2023-02-27T01:36:04.253Z,6.20
2023-02-27T01:38:31.316Z,5.70
2023-02-27T01:41:00.565Z,5.72
2023-02-27T01:43:27.766Z,5.32
2023-02-27T01:45:55.455Z,6.07
2023-02-27T01:48:25.188Z,5.85
2023-02-27T01:51:07.729Z,5.85
2023-02-27T01:53:36.044Z,5.85
2023-02-27T01:56:05.883Z,5.68
2023-02-27T01:58:33.277Z,5.70
2023-02-27T02:01:00.432Z,5.53
2023-02-27T02:03:45.904Z,5.95
2023-02-27T02:06:13.151Z,4.88
2023-02-27T02:08:44.963Z,6.28
2023-02-27T02:11:12.906Z,5.38
2023-02-27T02:13:41.050Z,5.22
2023-02-27T02:16:10.857Z,5.47
2023-02-27T02:18:50.253Z,5.25
2023-02-27T02:21:36.565Z,5.20
2023-02-27T02:24:21.428Z,5.45
2023-02-27T02:27:18.824Z,5.20
2023-02-27T02:30:04.633Z,6.03
2023-02-27T02:32:40.717Z,5.13
2023-02-27T02:35:07.720Z,4.80
2023-02-27T02:37:45.432Z,5.55
2023-02-27T02:40:15.270Z,5.43
2023-02-27T02:43:00.297Z,4.90
2023-02-27T02:45:27.326Z,5.80
2023-02-27T02:48:04.755Z,5.57
2023-02-27T02:50:55.927Z,5.88
2023-02-27T02:53:37.368Z,5.20
2023-02-27T02:56:14.915Z,5.68
2023-02-27T02:58:47.076Z,5.05
2023-02-27T03:01:22.127Z,4.78
2023-02-27T03:03:52.265Z,6.45
2023-02-27T03:06:30.743Z,5.50
2023-02-27T03:09:06.670Z,5.63
2023-02-27T03:11:35.422Z,5.07
2023-02-27T03:14:11.879Z,5.38
2023-02-27T03:16:42.093Z,5.53
2023-02-27T03:19:19.605Z,5.57
2023-02-27T03:21:50.958Z,5.43
2023-02-27T03:24:22.055Z,5.72
2023-02-27T03:26:51.264Z,5.13
2023-02-27T03:29:24.332Z,5.00
2023-02-27T03:31:54.872Z,5.15
2023-02-27T03:34:25.391Z,5.47
2023-02-27T03:36:58.202Z,4.72
2023-02-27T03:39:46.629Z,5.60
2023-02-27T03:42:32.685Z,5.38
2023-02-27T03:44:59.665Z,5.53
2023-02-27T03:47:26.926Z,5.50
2023-02-27T03:49:54.057Z,5.47
2023-02-27T03:52:21.588Z,5.28
2023-02-27T03:54:53.038Z,5.80
2023-02-27T03:57:20.400Z,5.93
2023-02-27T03:59:47.464Z,5.25
2023-02-27T04:02:14.653Z,5.63
2023-02-27T04:04:41.695Z,5.22
2023-02-27T04:07:22.543Z,5.47
2023-02-27T04:09:52.582Z,5.38
2023-02-27T04:12:34.260Z,5.15
2023-02-27T04:15:06.479Z,5.95
2023-02-27T04:17:37.737Z,5.07
2023-02-27T04:20:27.763Z,5.95
2023-02-27T04:23:04.252Z,5.25
2023-02-27T04:25:42.639Z,5.30
2023-02-27T04:28:17.386Z,6.13
2023-02-27T04:31:03.177Z,5.93
2023-02-27T04:33:36.518Z,5.93
2023-02-27T04:36:07.671Z,5.55
2023-02-27T04:38:57.957Z,5.97
2023-02-27T04:41:28.591Z,5.25
2023-02-27T04:43:56.005Z,5.78
2023-02-27T04:46:24.601Z,6.55
2023-02-27T04:48:59.001Z,5.15
2023-02-27T04:51:28.503Z,5.85
2023-02-27T04:53:59.562Z,5.20
2023-02-27T04:56:33.061Z,5.63
2023-02-27T04:59:06.871Z,5.50
2023-02-27T05:01:40.160Z,5.97
2023-02-27T05:04:08.903Z,5.90
2023-02-27T05:06:38.023Z,5.97
2023-02-27T05:09:25.319Z,6.28
2023-02-27T05:12:01.435Z,5.95
2023-02-27T05:14:39.649Z,5.53
2023-02-27T05:17:08.821Z,5.50
2023-02-27T05:19:38.799Z,5.38
2023-02-27T05:22:26.050Z,5.72
2023-02-27T05:24:59.837Z,5.18
2023-02-27T05:27:40.277Z,5.63
2023-02-27T05:30:24.708Z,6.35
2023-02-27T05:32:54.051Z,6.18
2023-02-27T05:35:25.546Z,5.82
2023-02-27T05:37:56.052Z,6.20
2023-02-27T05:40:25.803Z,6.10
2023-02-27T05:43:01.843Z,5.20
2023-02-27T05:45:34.590Z,5.93
2023-02-27T05:48:13.924Z,5.78
2023-02-27T05:50:42.118Z,6.03
2023-02-27T05:53:10.657Z,5.60
2023-02-27T05:55:49.290Z,5.70
2023-02-27T05:58:16.266Z,5.45
2023-02-27T06:00:49.461Z,6.38
2023-02-27T06:03:16.698Z,6.20
2023-02-27T06:05:44.439Z,5.22
2023-02-27T06:08:11.924Z,6.10
2023-02-27T06:10:39.053Z,5.55
2023-02-27T06:13:06.110Z,6.05
2023-02-27T06:15:33.226Z,5.45
2023-02-27T06:18:00.238Z,5.75
2023-02-27T06:20:27.308Z,5.68
2023-02-27T06:22:54.365Z,6.13
2023-02-27T06:25:22.050Z,6.15
2023-02-27T06:27:49.210Z,5.45
2023-02-27T06:30:16.405Z,5.20
2023-02-27T06:32:43.429Z,5.80
2023-02-27T06:35:10.586Z,6.32
2023-02-27T06:37:37.707Z,5.40
2023-02-27T06:40:05.836Z,5.95
2023-02-27T06:42:33.199Z,5.25
2023-02-27T06:45:00.238Z,5.88
2023-02-27T06:47:27.372Z,6.53
2023-02-27T06:49:54.352Z,5.63
2023-02-27T06:52:21.419Z,6.13
2023-02-27T06:54:48.424Z,5.20
2023-02-27T06:57:15.574Z,5.70
2023-02-27T06:59:43.016Z,5.70
2023-02-27T07:02:13.360Z,5.63
2023-02-27T07:04:40.626Z,5.93
2023-02-27T07:07:36.317Z,5.65
2023-02-27T07:09:54.957Z,6.35
2023-02-27T07:12:22.256Z,5.28
2023-02-27T07:14:49.482Z,5.20
2023-02-27T07:17:16.496Z,5.20
2023-02-27T07:19:43.498Z,5.40
2023-02-27T07:22:10.574Z,5.00
2023-02-27T07:24:37.604Z,5.30
2023-02-27T07:27:04.648Z,5.68
2023-02-27T07:29:31.745Z,5.57
2023-02-27T07:31:58.950Z,4.88
2023-02-27T07:34:26.040Z,5.82
2023-02-27T07:36:53.192Z,5.05
2023-02-27T07:39:20.206Z,6.35
2023-02-27T07:41:47.253Z,5.18
2023-02-27T07:44:14.294Z,5.45
2023-02-27T07:46:41.363Z,5.80
2023-02-27T07:49:08.405Z,5.75
2023-02-27T07:51:35.425Z,5.43
2023-02-27T07:54:02.443Z,5.70
2023-02-27T07:56:30.429Z,5.13
2023-02-27T07:58:57.683Z,5.95
2023-02-27T08:01:24.710Z,5.63
2023-02-27T08:03:51.807Z,5.70
2023-02-27T08:06:18.834Z,5.78
2023-02-27T08:08:45.900Z,5.93
2023-02-27T08:11:12.971Z,5.38
2023-02-27T08:13:59.541Z,5.65
2023-02-27T08:16:27.358Z,5.60
2023-02-27T08:18:54.697Z,4.85
2023-02-27T08:21:21.884Z,5.72
2023-02-27T08:23:49.020Z,5.28
2023-02-27T08:26:16.031Z,5.60
2023-02-27T08:28:43.193Z,5.55
2023-02-27T08:31:10.363Z,5.43
2023-02-27T08:33:37.421Z,5.43
2023-02-27T08:36:04.695Z,4.60
2023-02-27T08:38:31.765Z,5.45
2023-02-27T08:40:58.825Z,5.43
2023-02-27T08:43:25.967Z,5.90
2023-02-27T08:45:53.526Z,6.10
2023-02-27T08:48:20.733Z,6.32
2023-02-27T08:50:48.144Z,5.93
2023-02-27T08:53:15.262Z,5.85
2023-02-27T08:55:42.536Z,5.75
2023-02-27T08:58:10.332Z,5.95
2023-02-27T09:00:37.506Z,5.35
2023-02-27T09:03:04.585Z,6.18
2023-02-27T09:05:35.045Z,5.45
2023-02-27T09:08:02.905Z,5.47
2023-02-27T09:10:30.188Z,5.53
2023-02-27T09:12:57.225Z,6.10
2023-02-27T09:15:24.278Z,6.63
2023-02-27T09:17:51.512Z,5.88
2023-02-27T09:20:18.759Z,6.00
2023-02-27T09:22:45.814Z,6.40
2023-02-27T09:25:12.805Z,6.93
2023-02-27T09:27:39.853Z,6.03
2023-02-27T09:30:07.382Z,5.72
2023-02-27T09:32:34.533Z,6.15
2023-02-27T09:35:01.763Z,6.10
2023-02-27T09:37:28.833Z,7.03
2023-02-27T09:39:55.850Z,5.65
2023-02-27T09:42:29.020Z,6.68
2023-02-27T09:45:03.002Z,7.00
2023-02-27T09:47:35.684Z,6.05
2023-02-27T09:50:06.235Z,6.60
2023-02-27T09:52:34.605Z,7.13
2023-02-27T09:55:01.992Z,6.68
2023-02-27T09:57:48.015Z,6.72
2023-02-27T10:00:27.686Z,7.15
2023-02-27T10:03:03.915Z,6.28
2023-02-27T10:05:42.656Z,6.70
2023-02-27T10:08:15.331Z,7.65
2023-02-27T10:11:00.797Z,6.35
2023-02-27T10:13:27.809Z,6.30
2023-02-27T10:15:55.522Z,6.18
2023-02-27T10:18:28.936Z,6.05
2023-02-27T10:20:57.457Z,6.57
2023-02-27T10:23:45.967Z,6.25
2023-02-27T10:26:20.112Z,6.40
2023-02-27T10:28:47.158Z,6.70
2023-02-27T10:31:21.211Z,6.63
2023-02-27T10:33:49.027Z,6.55
2023-02-27T10:36:32.418Z,6.65
2023-02-27T10:39:01.769Z,6.20
2023-02-27T10:41:29.783Z,5.43
2023-02-27T10:43:58.484Z,5.20
2023-02-27T10:46:27.922Z,5.50
2023-02-27T10:48:55.305Z,6.03
2023-02-27T10:51:24.251Z,5.40
2023-02-27T10:53:53.294Z,5.40
2023-02-27T10:56:25.531Z,4.78
2023-02-27T10:59:03.978Z,4.88
2023-02-27T11:01:41.932Z,4.90
2023-02-27T11:04:09.061Z,4.00
2023-02-27T11:06:36.390Z,4.07
2023-02-27T11:09:23.468Z,3.78
2023-02-27T11:11:51.203Z,4.25
2023-02-27T11:14:31.267Z,3.83
2023-02-27T11:16:59.570Z,3.78
2023-02-27T11:19:26.571Z,4.28
2023-02-27T11:22:12.219Z,3.97
2023-02-27T11:24:39.280Z,3.92
2023-02-27T11:27:18.964Z,4.40
2023-02-27T11:30:06.358Z,3.95
2023-02-27T11:32:36.447Z,4.47
2023-02-27T11:35:04.969Z,4.30
2023-02-27T11:37:36.436Z,3.83
2023-02-27T11:40:10.346Z,4.28
2023-02-27T11:42:38.356Z,4.25
2023-02-27T11:45:08.004Z,3.83
2023-02-27T11:47:36.498Z,4.00
2023-02-27T11:50:16.211Z,4.55
2023-02-27T11:52:52.414Z,4.18
2023-02-27T11:55:24.365Z,3.92
2023-02-27T11:57:54.758Z,3.72
2023-02-27T12:00:26.454Z,3.90
2023-02-27T12:03:02.776Z,4.00
2023-02-27T12:05:32.420Z,3.55
2023-02-27T12:08:20.741Z,3.33
2023-02-27T12:11:07.819Z,3.00
2023-02-27T12:13:42.117Z,3.45
2023-02-27T12:16:32.249Z,3.38
2023-02-27T12:19:14.973Z,3.55
2023-02-27T12:21:44.131Z,3.80
2023-02-27T12:24:17.766Z,3.33
2023-02-27T12:26:46.053Z,3.90
2023-02-27T12:29:20.446Z,3.97
2023-02-27T12:31:50.432Z,3.53
2023-02-27T12:34:20.617Z,4.13
2023-02-27T12:36:48.731Z,4.10
2023-02-27T12:39:23.272Z,4.05
2023-02-27T12:42:16.666Z,3.75
2023-02-27T12:44:50.186Z,4.27
2023-02-27T12:47:17.221Z,4.05
2023-02-27T12:49:53.377Z,3.63
2023-02-27T12:52:38.473Z,3.83
2023-02-27T12:55:08.154Z,3.65
2023-02-27T12:57:35.160Z,4.22
2023-02-27T13:00:08.229Z,3.95
2023-02-27T13:02:53.335Z,4.32
2023-02-27T13:05:36.268Z,4.38
2023-02-27T13:08:03.262Z,3.75
2023-02-27T13:10:42.228Z,3.33
2023-02-27T13:13:15.176Z,3.60
2023-02-27T13:15:50.938Z,4.03
2023-02-27T13:18:36.659Z,3.38
2023-02-27T13:21:09.004Z,4.65
2023-02-27T13:23:44.381Z,4.20
2023-02-27T13:26:31.748Z,4.70
2023-02-27T13:29:00.768Z,3.72
2023-02-27T13:31:34.176Z,3.80
2023-02-27T13:34:20.014Z,3.67
2023-02-27T13:36:49.535Z,3.70
2023-02-27T13:39:35.332Z,4.60
2023-02-27T13:42:02.382Z,4.38
2023-02-27T13:44:42.493Z,4.35
2023-02-27T13:47:38.623Z,3.85
2023-02-27T13:50:25.995Z,4.55
2023-02-27T13:52:53.545Z,3.95
2023-02-27T13:55:28.020Z,4.07
2023-02-27T13:57:56.322Z,3.97
2023-02-27T14:00:25.205Z,4.30
2023-02-27T14:03:12.544Z,4.30
2023-02-27T14:05:40.801Z,4.43
2023-02-27T14:08:20.367Z,4.53
2023-02-27T14:10:57.273Z,4.70
2023-02-27T14:13:43.277Z,3.88
2023-02-27T14:16:11.413Z,3.90
2023-02-27T14:18:52.940Z,4.05
2023-02-27T14:21:38.611Z,4.60
2023-02-27T14:24:05.811Z,4.15
2023-02-27T14:26:34.214Z,5.18
2023-02-27T14:29:01.721Z,4.45
2023-02-27T14:31:32.265Z,4.97
2023-02-27T14:34:06.130Z,4.20
2023-02-27T14:39:01.027Z,5.20
2023-02-27T14:41:33.922Z,4.53
2023-02-27T14:44:01.205Z,4.72
2023-02-27T14:46:38.998Z,4.30
2023-02-27T14:49:20.834Z,4.72
2023-02-27T14:51:48.777Z,4.88
2023-02-27T14:54:16.813Z,4.93
2023-02-27T14:57:00.395Z,4.50
2023-02-27T14:59:27.373Z,4.30
2023-02-27T15:01:55.574Z,5.45
2023-02-27T15:04:23.822Z,5.18
2023-02-27T15:06:51.946Z,5.18
2023-02-27T15:09:25.039Z,5.25
2023-02-27T15:12:03.885Z,5.85
2023-02-27T15:14:32.854Z,5.18
2023-02-27T15:16:59.897Z,5.03
2023-02-27T15:19:28.253Z,5.03
2023-02-27T15:22:01.041Z,5.35
2023-02-27T15:27:08.298Z,5.55
2023-02-27T15:29:35.406Z,5.10
2023-02-27T15:32:03.454Z,5.25
2023-02-27T15:34:31.213Z,5.15
2023-02-27T15:36:59.115Z,5.38
2023-02-27T15:39:27.217Z,4.78
2023-02-27T15:41:59.223Z,4.82
2023-02-27T15:44:46.609Z,4.97
2023-02-27T15:47:19.016Z,4.90
2023-02-27T15:49:46.379Z,4.50
2023-02-27T15:52:13.458Z,4.88
2023-02-27T15:54:46.903Z,5.55
2023-02-27T15:57:14.223Z,5.28
2023-02-27T15:59:42.427Z,5.13
2023-02-27T16:02:18.504Z,4.88
2023-02-27T16:04:46.573Z,5.38
2023-02-27T16:07:16.313Z,4.60
2023-02-27T16:09:46.290Z,5.43
2023-02-27T16:12:22.696Z,5.47
2023-02-27T16:14:52.581Z,5.32
2023-02-27T16:17:24.306Z,5.18
2023-02-27T16:19:51.370Z,5.45
2023-02-27T16:22:19.379Z,5.35
2023-02-27T16:24:47.045Z,5.07
2023-02-27T16:27:27.952Z,5.20
2023-02-27T16:29:56.562Z,5.07
2023-02-27T16:32:25.238Z,5.22
2023-02-27T16:34:52.875Z,5.95
2023-02-27T16:37:21.496Z,5.53
2023-02-27T16:39:49.615Z,4.70
2023-02-27T16:42:16.640Z,5.03
2023-02-27T16:44:43.679Z,5.65
2023-02-27T16:47:10.845Z,4.72
2023-02-27T16:49:38.987Z,4.88
2023-02-27T16:52:07.214Z,5.38
2023-02-27T16:54:35.263Z,5.75
2023-02-27T16:57:02.425Z,5.38
2023-02-27T16:59:36.570Z,4.95
2023-02-27T17:02:06.258Z,5.13
2023-02-27T17:04:33.408Z,5.18
2023-02-27T17:07:01.301Z,5.72
2023-02-27T17:09:29.217Z,5.30
2023-02-27T17:11:57.078Z,4.65
2023-02-27T17:14:24.276Z,5.30
2023-02-27T17:16:51.380Z,6.28
2023-02-27T17:19:21.260Z,5.22
2023-02-27T17:21:48.297Z,5.22
2023-02-27T17:24:15.347Z,4.97
2023-02-27T17:26:42.381Z,5.70
2023-02-27T17:29:09.646Z,5.63
2023-02-27T17:31:37.060Z,5.40
2023-02-27T17:34:04.757Z,5.40
2023-02-27T17:36:31.780Z,5.82
2023-02-27T17:39:02.923Z,5.70
2023-02-27T17:41:30.787Z,5.65
2023-02-27T17:43:58.560Z,5.93
2023-02-27T17:46:27.457Z,5.45
2023-02-27T17:48:56.275Z,5.85
2023-02-27T17:51:23.813Z,5.53
2023-02-27T17:53:50.836Z,6.15
2023-02-27T17:56:17.906Z,6.03
2023-02-27T17:58:45.532Z,6.40
2023-02-27T18:01:14.065Z,5.75
2023-02-27T18:03:41.317Z,6.93
2023-02-27T18:06:09.436Z,6.65
2023-02-27T18:08:36.521Z,6.20
2023-02-27T18:11:04.019Z,6.30
2023-02-27T18:13:31.087Z,5.82
2023-02-27T18:15:58.253Z,6.25
2023-02-27T18:18:25.593Z,6.60
2023-02-27T18:21:02.619Z,6.72
2023-02-27T18:23:30.133Z,5.75
2023-02-27T18:25:57.758Z,5.90
2023-02-27T18:28:24.941Z,6.65
2023-02-27T18:30:52.454Z,6.25
2023-02-27T18:33:19.685Z,5.80
2023-02-27T18:35:47.256Z,6.63
2023-02-27T18:38:14.392Z,6.35
2023-02-27T18:40:42.589Z,6.20
2023-02-27T18:43:10.418Z,6.60
2023-02-27T18:45:38.309Z,6.57
2023-02-27T18:48:05.444Z,6.32
2023-02-27T18:50:32.512Z,6.18
2023-02-27T18:53:00.233Z,6.95
2023-02-27T18:55:27.528Z,6.38
2023-02-27T18:57:54.597Z,6.25
2023-02-27T19:00:24.003Z,7.03
2023-02-27T19:02:51.164Z,6.20
2023-02-27T19:05:18.378Z,6.70
2023-02-27T19:07:45.426Z,7.03
2023-02-27T19:10:12.686Z,6.82
2023-02-27T19:12:39.885Z,6.72
2023-02-27T19:15:07.249Z,7.35
2023-02-27T19:17:34.267Z,7.43
2023-02-27T19:20:01.383Z,7.30
2023-02-27T19:22:30.265Z,6.75
2023-02-27T19:24:57.549Z,6.95
2023-02-27T19:27:24.617Z,7.20
2023-02-27T19:29:51.888Z,7.38
2023-02-27T19:32:18.938Z,7.15
2023-02-27T19:34:46.116Z,7.38
2023-02-27T19:37:15.428Z,7.60
2023-02-27T19:39:42.440Z,7.43
2023-02-27T19:42:09.559Z,7.22
2023-02-27T19:44:36.593Z,7.13
2023-02-27T19:47:03.801Z,7.53
2023-02-27T19:49:30.848Z,6.93
2023-02-27T19:51:57.922Z,6.25
2023-02-27T19:54:25.009Z,6.50
2023-02-27T19:56:53.283Z,6.32
2023-02-27T19:59:21.980Z,6.05
2023-02-27T20:01:49.051Z,6.30
2023-02-27T20:04:17.582Z,6.57
2023-02-27T20:06:45.519Z,5.72
2023-02-27T20:09:14.521Z,5.72
2023-02-27T20:11:45.785Z,5.78
2023-02-27T20:14:13.933Z,6.38
2023-02-27T20:16:41.433Z,6.18
2023-02-27T20:19:10.410Z,4.75
2023-02-27T20:21:37.494Z,6.07
2023-02-27T20:24:04.780Z,6.35
2023-02-27T20:26:36.310Z,5.72
2023-02-27T20:29:05.083Z,5.88
2023-02-27T20:31:33.230Z,5.60
2023-02-27T20:34:05.870Z,5.38
2023-02-27T20:36:34.159Z,5.40
2023-02-27T20:39:02.208Z,5.47
2023-02-27T20:41:29.978Z,5.45
2023-02-27T20:43:57.180Z,5.32
2023-02-27T20:46:26.493Z,5.65
2023-02-27T20:48:53.554Z,5.47
2023-02-27T20:51:22.741Z,5.20
2023-02-27T20:53:51.298Z,5.30
2023-02-27T20:56:22.431Z,5.45
2023-02-27T20:58:49.534Z,4.70
2023-02-27T21:01:17.470Z,4.93
2023-02-27T21:03:46.542Z,5.30
2023-02-27T21:06:15.046Z,3.90
2023-02-27T21:08:43.137Z,3.97
2023-02-27T21:11:11.417Z,4.40
2023-02-27T21:13:38.552Z,4.00
2023-02-27T21:16:06.379Z,5.07
2023-02-27T21:18:33.424Z,4.30
2023-02-27T21:21:04.975Z,4.45
2023-02-27T21:23:32.052Z,4.18
2023-02-27T21:25:59.155Z,4.20
2023-02-27T21:28:26.364Z,4.25
2023-02-27T21:30:54.595Z,4.35
2023-02-27T21:33:24.470Z,3.63
2023-02-27T21:35:51.626Z,3.35
2023-02-27T21:38:18.724Z,3.80
2023-02-27T21:40:45.947Z,4.45
2023-02-27T21:43:13.067Z,4.35
2023-02-27T21:45:46.051Z,4.20
2023-02-27T21:48:13.136Z,3.95
2023-02-27T21:50:40.161Z,3.88
2023-02-27T21:53:07.239Z,4.38
2023-02-27T21:55:34.851Z,4.18
2023-02-27T21:58:04.185Z,4.05
2023-02-27T22:00:31.458Z,4.00
2023-02-27T22:02:58.539Z,4.00
2023-02-27T22:05:25.609Z,4.20
2023-02-27T22:07:52.667Z,4.70
2023-02-27T22:10:19.719Z,3.50
2023-02-27T22:12:46.767Z,4.60
2023-02-27T22:15:13.885Z,4.45
2023-02-27T22:17:40.912Z,4.25
2023-02-27T22:20:08.480Z,3.80
2023-02-27T22:22:36.551Z,4.13
2023-02-27T22:25:03.629Z,4.10
2023-02-27T22:27:30.635Z,4.53
2023-02-27T22:29:57.682Z,4.60
2023-02-27T22:32:24.758Z,4.47
2023-02-27T22:34:51.807Z,4.43
2023-02-27T22:37:19.827Z,4.00
2023-02-27T22:39:46.833Z,4.40
2023-02-27T22:42:14.165Z,4.35
2023-02-27T22:44:41.256Z,4.32
2023-02-27T22:47:09.296Z,4.75
2023-02-27T22:49:37.211Z,5.00
2023-02-27T22:52:04.277Z,4.38
2023-02-27T22:54:31.335Z,4.45
2023-02-27T22:56:58.384Z,4.20
2023-02-27T22:59:25.730Z,4.65
2023-02-27T23:01:53.913Z,4.72
2023-02-27T23:04:22.122Z,4.55
2023-02-27T23:06:51.556Z,4.63
2023-02-27T23:09:20.995Z,4.60
2023-02-27T23:11:48.210Z,4.78
2023-02-27T23:14:16.074Z,4.68
2023-02-27T23:16:46.618Z,5.20
2023-02-27T23:19:14.888Z,4.88
2023-02-27T23:21:41.958Z,4.82
2023-02-27T23:24:10.556Z,4.57
2023-02-27T23:26:38.773Z,4.80
2023-02-27T23:29:06.267Z,5.13
2023-02-27T23:31:35.287Z,4.72
2023-02-27T23:34:04.085Z,4.30
2023-02-27T23:36:31.104Z,4.65
2023-02-27T23:38:59.222Z,4.45
2023-02-27T23:41:26.719Z,5.32
2023-02-27T23:43:54.199Z,4.30
2023-02-27T23:46:21.377Z,4.97
2023-02-27T23:48:48.846Z,4.60
2023-02-27T23:51:15.987Z,4.70
2023-02-27T23:53:43.475Z,4.60
2023-02-27T23:56:13.557Z,5.32
2023-02-27T23:58:40.628Z,5.43
